Kalida, Ohio
Current Conditions -  °F | °C
As of 3:53 AM on Monday 22 Dec 2014 (Local Time) from KAOH Reporting Station
Haze Haze  
Wind Chill: 19°   Ceiling: Unl
Heat Index: 28°   Visibility: 5mi
Dew Point: 22°   Wind: 9mph
Humidity: 78%   Direction: 120°ESE
Pressure: 30.07"   Gusts: NA
Location:  40.98°N, 84.2°W
Report Text: KAOH 220853Z AUTO 12008KT 5SM HZ CLR M02/M06 A3007 RMK AO2 SLP191 T10221056 56013
Loading
Personal Weather Stations






























Interactive Weather Map New forecast layout! Learn more

10-Day Weather Forecast

Advertisements
Track Severe Weather on mobile